sensor_id;sensor_type;location;lat;lon;timestamp;pressure;altitude;pressure_sealevel;temperature;humidity
28606;BME280;46498;49.968;7.754;2023-08-21T00:02:26;-18954.00;;;21.25;nan
28606;BME280;46498;49.968;7.754;2023-08-21T00:07:28;-18953.00;;;21.20;nan
28606;BME280;46498;49.968;7.754;2023-08-21T00:12:29;-18950.00;;;21.13;nan
28606;BME280;46498;49.968;7.754;2023-08-21T00:17:30;-18949.00;;;21.10;nan
28606;BME280;46498;49.968;7.754;2023-08-21T00:22:31;-18947.00;;;21.03;nan
28606;BME280;46498;49.968;7.754;2023-08-21T00:27:31;-18946.00;;;20.98;nan
28606;BME280;46498;49.968;7.754;2023-08-21T00:32:32;-18944.00;;;20.92;nan
28606;BME280;46498;49.968;7.754;2023-08-21T00:37:33;-18944.00;;;20.94;nan
28606;BME280;46498;49.968;7.754;2023-08-21T00:42:34;-18945.00;;;20.97;nan
28606;BME280;46498;49.968;7.754;2023-08-21T00:47:35;-18943.00;;;20.91;nan
28606;BME280;46498;49.968;7.754;2023-08-21T00:52:39;-18942.00;;;20.88;nan
28606;BME280;46498;49.968;7.754;2023-08-21T00:57:40;-18940.00;;;20.81;nan
28606;BME280;46498;49.968;7.754;2023-08-21T01:02:42;-18937.00;;;20.70;nan
28606;BME280;46498;49.968;7.754;2023-08-21T01:07:57;-18936.00;;;20.69;nan
28606;BME280;46498;49.968;7.754;2023-08-21T01:13:11;-18939.00;;;20.77;nan
28606;BME280;46498;49.968;7.754;2023-08-21T01:18:18;-18938.00;;;20.74;nan
28606;BME280;46498;49.968;7.754;2023-08-21T01:24:20;-18938.00;;;20.73;nan
28606;BME280;46498;49.968;7.754;2023-08-21T01:29:21;-18939.00;;;20.77;nan
28606;BME280;46498;49.968;7.754;2023-08-21T01:34:22;-18937.00;;;20.71;nan
28606;BME280;46498;49.968;7.754;2023-08-21T01:39:24;-18936.00;;;20.68;nan
28606;BME280;46498;49.968;7.754;2023-08-21T01:44:25;-18936.00;;;20.69;nan
28606;BME280;46498;49.968;7.754;2023-08-21T01:49:28;-18933.00;;;20.60;nan
28606;BME280;46498;49.968;7.754;2023-08-21T01:54:29;-18936.00;;;20.67;nan
28606;BME280;46498;49.968;7.754;2023-08-21T01:59:32;-18933.00;;;20.58;nan
28606;BME280;46498;49.968;7.754;2023-08-21T02:04:33;-18933.00;;;20.59;nan
28606;BME280;46498;49.968;7.754;2023-08-21T02:09:33;-18932.00;;;20.55;nan
28606;BME280;46498;49.968;7.754;2023-08-21T02:14:34;-18930.00;;;20.48;nan
28606;BME280;46498;49.968;7.754;2023-08-21T02:19:35;-18929.00;;;20.44;nan
28606;BME280;46498;49.968;7.754;2023-08-21T02:24:36;-18926.00;;;20.35;nan
28606;BME280;46498;49.968;7.754;2023-08-21T02:29:37;-18922.00;;;20.22;nan
28606;BME280;46498;49.968;7.754;2023-08-21T02:34:38;-18923.00;;;20.27;nan
28606;BME280;46498;49.968;7.754;2023-08-21T02:39:40;-18919.00;;;20.15;nan
28606;BME280;46498;49.968;7.754;2023-08-21T02:44:41;-18919.00;;;20.14;nan
28606;BME280;46498;49.968;7.754;2023-08-21T02:49:42;-18919.00;;;20.15;nan
28606;BME280;46498;49.968;7.754;2023-08-21T02:54:43;-18918.00;;;20.12;nan
28606;BME280;46498;49.968;7.754;2023-08-21T02:59:44;-18915.00;;;20.01;nan
28606;BME280;46498;49.968;7.754;2023-08-21T03:04:45;-18915.00;;;20.01;nan
28606;BME280;46498;49.968;7.754;2023-08-21T03:09:47;-18913.00;;;19.96;nan
28606;BME280;46498;49.968;7.754;2023-08-21T03:14:48;-18913.00;;;19.96;nan
28606;BME280;46498;49.968;7.754;2023-08-21T03:19:49;-18913.00;;;19.95;nan
28606;BME280;46498;49.968;7.754;2023-08-21T03:24:49;-18913.00;;;19.95;nan
28606;BME280;46498;49.968;7.754;2023-08-21T03:29:51;-18911.00;;;19.90;nan
28606;BME280;46498;49.968;7.754;2023-08-21T03:34:51;-18908.00;;;19.81;nan
28606;BME280;46498;49.968;7.754;2023-08-21T03:39:53;-18908.00;;;19.80;nan
28606;BME280;46498;49.968;7.754;2023-08-21T03:44:54;-18908.00;;;19.80;nan
28606;BME280;46498;49.968;7.754;2023-08-21T03:49:55;-18909.00;;;19.83;nan
28606;BME280;46498;49.968;7.754;2023-08-21T03:54:57;-18904.00;;;19.68;nan
28606;BME280;46498;49.968;7.754;2023-08-21T03:59:58;-18901.00;;;19.59;nan
28606;BME280;46498;49.968;7.754;2023-08-21T04:04:59;-18903.00;;;19.64;nan
28606;BME280;46498;49.968;7.754;2023-08-21T04:10:01;-18902.00;;;19.62;nan
28606;BME280;46498;49.968;7.754;2023-08-21T04:15:03;-18901.00;;;19.59;nan
28606;BME280;46498;49.968;7.754;2023-08-21T04:20:05;-18901.00;;;19.59;nan
28606;BME280;46498;49.968;7.754;2023-08-21T04:25:08;-18901.00;;;19.57;nan
28606;BME280;46498;49.968;7.754;2023-08-21T04:30:10;-18901.00;;;19.59;nan
28606;BME280;46498;49.968;7.754;2023-08-21T04:35:11;-18903.00;;;19.65;nan
28606;BME280;46498;49.968;7.754;2023-08-21T04:40:12;-18903.00;;;19.63;nan
28606;BME280;46498;49.968;7.754;2023-08-21T04:45:13;-18903.00;;;19.63;nan
28606;BME280;46498;49.968;7.754;2023-08-21T04:50:15;-18902.00;;;19.60;nan
28606;BME280;46498;49.968;7.754;2023-08-21T04:55:17;-18902.00;;;19.60;nan
28606;BME280;46498;49.968;7.754;2023-08-21T05:00:18;-18905.00;;;19.69;nan
28606;BME280;46498;49.968;7.754;2023-08-21T05:05:19;-18912.00;;;19.92;nan
28606;BME280;46498;49.968;7.754;2023-08-21T05:10:21;-18917.00;;;20.09;nan
28606;BME280;46498;49.968;7.754;2023-08-21T05:15:22;-18924.00;;;20.31;nan
28606;BME280;46498;49.968;7.754;2023-08-21T05:20:23;-18934.00;;;20.62;nan
28606;BME280;46498;49.968;7.754;2023-08-21T05:25:24;-18940.00;;;20.81;nan
28606;BME280;46498;49.968;7.754;2023-08-21T05:30:25;-18949.00;;;21.10;nan
28606;BME280;46498;49.968;7.754;2023-08-21T05:35:26;-18963.00;;;21.52;nan
28606;BME280;46498;49.968;7.754;2023-08-21T05:40:29;-18960.00;;;21.44;nan
28606;BME280;46498;49.968;7.754;2023-08-21T05:45:30;-18969.00;;;21.73;nan
28606;BME280;46498;49.968;7.754;2023-08-21T05:50:31;-18981.00;;;22.09;nan
28606;BME280;46498;49.968;7.754;2023-08-21T05:55:32;-18993.00;;;22.47;nan
28606;BME280;46498;49.968;7.754;2023-08-21T06:00:34;-19003.00;;;22.80;nan
28606;BME280;46498;49.968;7.754;2023-08-21T06:05:36;-19001.00;;;22.73;nan
28606;BME280;46498;49.968;7.754;2023-08-21T06:10:37;-18985.00;;;22.22;nan
28606;BME280;46498;49.968;7.754;2023-08-21T06:15:38;-18977.00;;;21.98;nan
28606;BME280;46498;49.968;7.754;2023-08-21T06:20:42;-18977.00;;;21.97;nan
28606;BME280;46498;49.968;7.754;2023-08-21T06:25:43;-18990.00;;;22.39;nan
28606;BME280;46498;49.968;7.754;2023-08-21T06:30:45;-19006.00;;;22.89;nan
28606;BME280;46498;49.968;7.754;2023-08-21T06:35:46;-19014.00;;;23.15;nan
28606;BME280;46498;49.968;7.754;2023-08-21T06:40:47;-19016.00;;;23.21;nan
28606;BME280;46498;49.968;7.754;2023-08-21T06:45:48;-19030.00;;;23.63;nan
28606;BME280;46498;49.968;7.754;2023-08-21T06:50:49;-19038.00;;;23.91;nan
28606;BME280;46498;49.968;7.754;2023-08-21T06:55:49;-19044.00;;;24.08;nan
28606;BME280;46498;49.968;7.754;2023-08-21T07:00:50;-19050.00;;;24.26;nan
28606;BME280;46498;49.968;7.754;2023-08-21T07:05:55;-19047.00;;;24.18;nan
28606;BME280;46498;49.968;7.754;2023-08-21T07:10:57;-19055.00;;;24.42;nan
28606;BME280;46498;49.968;7.754;2023-08-21T07:15:58;-19060.00;;;24.59;nan
28606;BME280;46498;49.968;7.754;2023-08-21T07:20:59;-19069.00;;;24.86;nan
28606;BME280;46498;49.968;7.754;2023-08-21T07:26:00;-19080.00;;;25.21;nan
28606;BME280;46498;49.968;7.754;2023-08-21T07:31:01;-19079.00;;;25.17;nan
28606;BME280;46498;49.968;7.754;2023-08-21T07:36:04;-19081.00;;;25.25;nan
28606;BME280;46498;49.968;7.754;2023-08-21T07:41:10;-19080.00;;;25.20;nan
28606;BME280;46498;49.968;7.754;2023-08-21T07:46:13;-19084.00;;;25.34;nan
28606;BME280;46498;49.968;7.754;2023-08-21T07:51:16;-19090.00;;;25.53;nan
28606;BME280;46498;49.968;7.754;2023-08-21T07:56:17;-19093.00;;;25.64;nan
28606;BME280;46498;49.968;7.754;2023-08-21T08:01:18;-19092.00;;;25.60;nan
28606;BME280;46498;49.968;7.754;2023-08-21T08:06:21;-19092.00;;;25.59;nan
28606;BME280;46498;49.968;7.754;2023-08-21T08:11:22;-19092.00;;;25.60;nan
28606;BME280;46498;49.968;7.754;2023-08-21T08:16:23;-19096.00;;;25.72;nan
28606;BME280;46498;49.968;7.754;2023-08-21T08:21:24;-19094.00;;;25.66;nan
28606;BME280;46498;49.968;7.754;2023-08-21T08:26:25;-19097.00;;;25.76;nan
28606;BME280;46498;49.968;7.754;2023-08-21T08:31:26;-19105.00;;;26.00;nan
28606;BME280;46498;49.968;7.754;2023-08-21T08:36:28;-19110.00;;;26.17;nan
28606;BME280;46498;49.968;7.754;2023-08-21T08:41:53;-19115.00;;;26.32;nan
28606;BME280;46498;49.968;7.754;2023-08-21T08:46:55;-19123.00;;;26.57;nan
28606;BME280;46498;49.968;7.754;2023-08-21T08:51:57;-19120.00;;;26.47;nan
28606;BME280;46498;49.968;7.754;2023-08-21T08:56:58;-19121.00;;;26.52;nan
28606;BME280;46498;49.968;7.754;2023-08-21T09:02:00;-19128.00;;;26.72;nan
28606;BME280;46498;49.968;7.754;2023-08-21T09:07:10;-19130.00;;;26.81;nan
28606;BME280;46498;49.968;7.754;2023-08-21T09:12:13;-19137.00;;;27.01;nan
28606;BME280;46498;49.968;7.754;2023-08-21T09:17:14;-19141.00;;;27.16;nan
28606;BME280;46498;49.968;7.754;2023-08-21T09:22:17;-19149.00;;;27.39;nan
28606;BME280;46498;49.968;7.754;2023-08-21T09:27:21;-19154.00;;;27.55;nan
28606;BME280;46498;49.968;7.754;2023-08-21T09:32:22;-19159.00;;;27.70;nan
28606;BME280;46498;49.968;7.754;2023-08-21T09:37:28;-19157.00;;;27.66;nan
28606;BME280;46498;49.968;7.754;2023-08-21T09:42:33;-19160.00;;;27.74;nan
28606;BME280;46498;49.968;7.754;2023-08-21T09:47:36;-19140.00;;;27.12;nan
28606;BME280;46498;49.968;7.754;2023-08-21T09:52:37;-19129.00;;;26.77;nan
28606;BME280;46498;49.968;7.754;2023-08-21T09:57:39;-19142.00;;;27.18;nan
28606;BME280;46498;49.968;7.754;2023-08-21T10:02:42;-19145.00;;;27.28;nan
28606;BME280;46498;49.968;7.754;2023-08-21T10:07:49;-19163.00;;;27.83;nan
28606;BME280;46498;49.968;7.754;2023-08-21T10:12:51;-19168.00;;;28.01;nan
28606;BME280;46498;49.968;7.754;2023-08-21T10:17:52;-19179.00;;;28.34;nan
28606;BME280;46498;49.968;7.754;2023-08-21T10:22:55;-19191.00;;;28.73;nan
28606;BME280;46498;49.968;7.754;2023-08-21T10:27:59;-19193.00;;;28.80;nan
28606;BME280;46498;49.968;7.754;2023-08-21T10:33:04;-19189.00;;;28.67;nan
28606;BME280;46498;49.968;7.754;2023-08-21T10:38:15;-19197.00;;;28.92;nan
28606;BME280;46498;49.968;7.754;2023-08-21T10:43:40;-19213.00;;;29.42;nan
28606;BME280;46498;49.968;7.754;2023-08-21T10:48:41;-19213.00;;;29.41;nan
28606;BME280;46498;49.968;7.754;2023-08-21T10:53:42;-19210.00;;;29.33;nan
28606;BME280;46498;49.968;7.754;2023-08-21T10:58:44;-19209.00;;;29.28;nan
28606;BME280;46498;49.968;7.754;2023-08-21T11:03:50;-19201.00;;;29.05;nan
28606;BME280;46498;49.968;7.754;2023-08-21T11:08:51;-19210.00;;;29.32;nan
28606;BME280;46498;49.968;7.754;2023-08-21T11:13:53;-19206.00;;;29.20;nan
28606;BME280;46498;49.968;7.754;2023-08-21T11:18:54;-19189.00;;;28.67;nan
28606;BME280;46498;49.968;7.754;2023-08-21T11:23:55;-19195.00;;;28.85;nan
28606;BME280;46498;49.968;7.754;2023-08-21T11:28:56;-19187.00;;;28.59;nan
28606;BME280;46498;49.968;7.754;2023-08-21T11:33:59;-19199.00;;;28.98;nan
28606;BME280;46498;49.968;7.754;2023-08-21T11:39:06;-19183.00;;;28.48;nan
28606;BME280;46498;49.968;7.754;2023-08-21T11:44:08;-19204.00;;;29.13;nan
28606;BME280;46498;49.968;7.754;2023-08-21T11:49:10;-19218.00;;;29.59;nan
28606;BME280;46498;49.968;7.754;2023-08-21T11:54:11;-19195.00;;;28.84;nan
28606;BME280;46498;49.968;7.754;2023-08-21T11:59:21;-19176.00;;;28.25;nan
28606;BME280;46498;49.968;7.754;2023-08-21T12:04:22;-19178.00;;;28.30;nan
28606;BME280;46498;49.968;7.754;2023-08-21T12:09:23;-19173.00;;;28.14;nan
28606;BME280;46498;49.968;7.754;2023-08-21T12:14:24;-19171.00;;;28.10;nan
28606;BME280;46498;49.968;7.754;2023-08-21T12:19:25;-19177.00;;;28.29;nan
28606;BME280;46498;49.968;7.754;2023-08-21T12:24:26;-19181.00;;;28.40;nan
28606;BME280;46498;49.968;7.754;2023-08-21T12:29:26;-19181.00;;;28.40;nan
28606;BME280;46498;49.968;7.754;2023-08-21T12:34:27;-19182.00;;;28.45;nan
28606;BME280;46498;49.968;7.754;2023-08-21T12:39:28;-19187.00;;;28.61;nan
28606;BME280;46498;49.968;7.754;2023-08-21T12:44:29;-19186.00;;;28.56;nan
28606;BME280;46498;49.968;7.754;2023-08-21T12:49:30;-19186.00;;;28.56;nan
28606;BME280;46498;49.968;7.754;2023-08-21T12:54:31;-19182.00;;;28.44;nan
28606;BME280;46498;49.968;7.754;2023-08-21T12:59:32;-19183.00;;;28.48;nan
28606;BME280;46498;49.968;7.754;2023-08-21T13:04:32;-19189.00;;;28.67;nan
28606;BME280;46498;49.968;7.754;2023-08-21T13:09:33;-19184.00;;;28.52;nan
28606;BME280;46498;49.968;7.754;2023-08-21T13:14:35;-19181.00;;;28.40;nan
28606;BME280;46498;49.968;7.754;2023-08-21T13:19:36;-19169.00;;;28.02;nan
28606;BME280;46498;49.968;7.754;2023-08-21T13:24:37;-19181.00;;;28.42;nan
28606;BME280;46498;49.968;7.754;2023-08-21T13:29:38;-19214.00;;;29.46;nan
28606;BME280;46498;49.968;7.754;2023-08-21T13:34:40;-19226.00;;;29.83;nan
28606;BME280;46498;49.968;7.754;2023-08-21T13:39:41;-19213.00;;;29.42;nan
28606;BME280;46498;49.968;7.754;2023-08-21T13:44:42;-19211.00;;;29.36;nan
28606;BME280;46498;49.968;7.754;2023-08-21T13:49:43;-19224.00;;;29.77;nan
28606;BME280;46498;49.968;7.754;2023-08-21T13:54:43;-19211.00;;;29.35;nan
28606;BME280;46498;49.968;7.754;2023-08-21T13:59:44;-19204.00;;;29.13;nan
28606;BME280;46498;49.968;7.754;2023-08-21T14:04:46;-19195.00;;;28.86;nan
28606;BME280;46498;49.968;7.754;2023-08-21T14:09:47;-19196.00;;;28.87;nan
28606;BME280;46498;49.968;7.754;2023-08-21T14:14:48;-19194.00;;;28.82;nan
28606;BME280;46498;49.968;7.754;2023-08-21T14:19:48;-19193.00;;;28.78;nan
28606;BME280;46498;49.968;7.754;2023-08-21T14:24:49;-19190.00;;;28.70;nan
28606;BME280;46498;49.968;7.754;2023-08-21T14:29:50;-19203.00;;;29.10;nan
28606;BME280;46498;49.968;7.754;2023-08-21T14:34:52;-19229.00;;;29.94;nan
28606;BME280;46498;49.968;7.754;2023-08-21T14:39:55;-19238.00;;;30.21;nan
28606;BME280;46498;49.968;7.754;2023-08-21T14:44:56;-19244.00;;;30.39;nan
28606;BME280;46498;49.968;7.754;2023-08-21T14:49:57;-19225.00;;;29.80;nan
28606;BME280;46498;49.968;7.754;2023-08-21T14:54:58;-19210.00;;;29.33;nan
28606;BME280;46498;49.968;7.754;2023-08-21T14:59:59;-19220.00;;;29.64;nan
28606;BME280;46498;49.968;7.754;2023-08-21T15:05:02;-19225.00;;;29.78;nan
28606;BME280;46498;49.968;7.754;2023-08-21T15:10:06;-19228.00;;;29.91;nan
28606;BME280;46498;49.968;7.754;2023-08-21T15:15:07;-19238.00;;;30.21;nan
28606;BME280;46498;49.968;7.754;2023-08-21T15:20:09;-19228.00;;;29.89;nan
28606;BME280;46498;49.968;7.754;2023-08-21T15:25:10;-19236.00;;;30.14;nan
28606;BME280;46498;49.968;7.754;2023-08-21T15:30:12;-19235.00;;;30.10;nan
28606;BME280;46498;49.968;7.754;2023-08-21T15:35:14;-19233.00;;;30.04;nan
28606;BME280;46498;49.968;7.754;2023-08-21T15:40:15;-19220.00;;;29.63;nan
28606;BME280;46498;49.968;7.754;2023-08-21T15:45:16;-19218.00;;;29.58;nan
28606;BME280;46498;49.968;7.754;2023-08-21T15:50:17;-19218.00;;;29.57;nan
28606;BME280;46498;49.968;7.754;2023-08-21T15:55:20;-19210.00;;;29.34;nan
28606;BME280;46498;49.968;7.754;2023-08-21T16:00:21;-19216.00;;;29.50;nan
28606;BME280;46498;49.968;7.754;2023-08-21T16:05:23;-19224.00;;;29.76;nan
28606;BME280;46498;49.968;7.754;2023-08-21T16:10:24;-19229.00;;;29.91;nan
28606;BME280;46498;49.968;7.754;2023-08-21T16:15:25;-19230.00;;;29.95;nan
28606;BME280;46498;49.968;7.754;2023-08-21T16:20:26;-19234.00;;;30.07;nan
28606;BME280;46498;49.968;7.754;2023-08-21T16:25:28;-19222.00;;;29.72;nan
28606;BME280;46498;49.968;7.754;2023-08-21T16:30:29;-19219.00;;;29.62;nan
28606;BME280;46498;49.968;7.754;2023-08-21T16:35:30;-19205.00;;;29.17;nan
28606;BME280;46498;49.968;7.754;2023-08-21T16:40:31;-19200.00;;;29.01;nan
28606;BME280;46498;49.968;7.754;2023-08-21T16:45:32;-19203.00;;;29.10;nan
28606;BME280;46498;49.968;7.754;2023-08-21T16:50:33;-19194.00;;;28.81;nan
28606;BME280;46498;49.968;7.754;2023-08-21T17:10:37;-19147.00;;;27.32;nan
28606;BME280;46498;49.968;7.754;2023-08-21T17:15:40;-19144.00;;;27.23;nan
28606;BME280;46498;49.968;7.754;2023-08-21T17:20:41;-19137.00;;;27.01;nan
28606;BME280;46498;49.968;7.754;2023-08-21T17:25:42;-19127.00;;;26.71;nan
28606;BME280;46498;49.968;7.754;2023-08-21T17:30:43;-19120.00;;;26.47;nan
28606;BME280;46498;49.968;7.754;2023-08-21T17:35:44;-19120.00;;;26.49;nan
28606;BME280;46498;49.968;7.754;2023-08-21T17:40:45;-19107.00;;;26.07;nan
28606;BME280;46498;49.968;7.754;2023-08-21T17:45:45;-19104.00;;;25.98;nan
28606;BME280;46498;49.968;7.754;2023-08-21T17:50:46;-19101.00;;;25.89;nan
28606;BME280;46498;49.968;7.754;2023-08-21T17:55:47;-19093.00;;;25.62;nan
28606;BME280;46498;49.968;7.754;2023-08-21T18:00:48;-19086.00;;;25.41;nan
28606;BME280;46498;49.968;7.754;2023-08-21T18:05:49;-19078.00;;;25.16;nan
28606;BME280;46498;49.968;7.754;2023-08-21T18:10:50;-19071.00;;;24.95;nan
28606;BME280;46498;49.968;7.754;2023-08-21T18:15:52;-19067.00;;;24.82;nan
28606;BME280;46498;49.968;7.754;2023-08-21T18:20:54;-19065.00;;;24.76;nan
28606;BME280;46498;49.968;7.754;2023-08-21T18:25:55;-19061.00;;;24.63;nan
28606;BME280;46498;49.968;7.754;2023-08-21T18:30:58;-19056.00;;;24.45;nan
28606;BME280;46498;49.968;7.754;2023-08-21T18:35:59;-19055.00;;;24.43;nan
28606;BME280;46498;49.968;7.754;2023-08-21T18:41:03;-19047.00;;;24.18;nan
28606;BME280;46498;49.968;7.754;2023-08-21T18:46:04;-19044.00;;;24.08;nan
28606;BME280;46498;49.968;7.754;2023-08-21T18:51:05;-19040.00;;;23.97;nan
28606;BME280;46498;49.968;7.754;2023-08-21T18:56:06;-19038.00;;;23.90;nan
28606;BME280;46498;49.968;7.754;2023-08-21T19:01:06;-19035.00;;;23.81;nan
28606;BME280;46498;49.968;7.754;2023-08-21T19:06:07;-19031.00;;;23.68;nan
28606;BME280;46498;49.968;7.754;2023-08-21T19:11:08;-19035.00;;;23.80;nan
28606;BME280;46498;49.968;7.754;2023-08-21T19:16:09;-19030.00;;;23.63;nan
28606;BME280;46498;49.968;7.754;2023-08-21T19:21:10;-19026.00;;;23.51;nan
28606;BME280;46498;49.968;7.754;2023-08-21T19:26:11;-19023.00;;;23.41;nan
28606;BME280;46498;49.968;7.754;2023-08-21T19:31:12;-19021.00;;;23.34;nan
28606;BME280;46498;49.968;7.754;2023-08-21T19:36:13;-19019.00;;;23.30;nan
28606;BME280;46498;49.968;7.754;2023-08-21T19:41:15;-19020.00;;;23.34;nan
28606;BME280;46498;49.968;7.754;2023-08-21T19:46:16;-19019.00;;;23.30;nan
28606;BME280;46498;49.968;7.754;2023-08-21T19:51:17;-19017.00;;;23.23;nan
28606;BME280;46498;49.968;7.754;2023-08-21T19:56:18;-19015.00;;;23.16;nan
28606;BME280;46498;49.968;7.754;2023-08-21T20:01:19;-19010.00;;;23.01;nan
28606;BME280;46498;49.968;7.754;2023-08-21T20:06:20;-19011.00;;;23.04;nan
28606;BME280;46498;49.968;7.754;2023-08-21T20:11:21;-19005.00;;;22.85;nan
28606;BME280;46498;49.968;7.754;2023-08-21T20:16:22;-19005.00;;;22.85;nan
28606;BME280;46498;49.968;7.754;2023-08-21T20:21:24;-19003.00;;;22.80;nan
28606;BME280;46498;49.968;7.754;2023-08-21T20:26:25;-18999.00;;;22.66;nan
28606;BME280;46498;49.968;7.754;2023-08-21T20:31:28;-19000.00;;;22.69;nan
28606;BME280;46498;49.968;7.754;2023-08-21T20:36:29;-19001.00;;;22.72;nan
28606;BME280;46498;49.968;7.754;2023-08-21T20:41:30;-18999.00;;;22.65;nan
28606;BME280;46498;49.968;7.754;2023-08-21T20:46:32;-18996.00;;;22.57;nan
28606;BME280;46498;49.968;7.754;2023-08-21T20:51:33;-18992.00;;;22.43;nan
28606;BME280;46498;49.968;7.754;2023-08-21T20:56:35;-18992.00;;;22.43;nan
28606;BME280;46498;49.968;7.754;2023-08-21T21:01:36;-18989.00;;;22.34;nan
28606;BME280;46498;49.968;7.754;2023-08-21T21:06:37;-18985.00;;;22.21;nan
28606;BME280;46498;49.968;7.754;2023-08-21T21:11:38;-18986.00;;;22.26;nan
28606;BME280;46498;49.968;7.754;2023-08-21T21:16:39;-18984.00;;;22.20;nan
28606;BME280;46498;49.968;7.754;2023-08-21T21:21:41;-18980.00;;;22.07;nan
28606;BME280;46498;49.968;7.754;2023-08-21T21:26:42;-18973.00;;;21.85;nan
28606;BME280;46498;49.968;7.754;2023-08-21T21:31:43;-18973.00;;;21.85;nan
28606;BME280;46498;49.968;7.754;2023-08-21T21:36:45;-18975.00;;;21.89;nan
28606;BME280;46498;49.968;7.754;2023-08-21T21:41:46;-18972.00;;;21.81;nan
28606;BME280;46498;49.968;7.754;2023-08-21T21:46:47;-18973.00;;;21.83;nan
28606;BME280;46498;49.968;7.754;2023-08-21T21:51:47;-18968.00;;;21.68;nan
28606;BME280;46498;49.968;7.754;2023-08-21T21:56:48;-18963.00;;;21.52;nan
28606;BME280;46498;49.968;7.754;2023-08-21T22:01:49;-18963.00;;;21.54;nan
28606;BME280;46498;49.968;7.754;2023-08-21T22:06:50;-18962.00;;;21.50;nan
28606;BME280;46498;49.968;7.754;2023-08-21T22:11:51;-18963.00;;;21.52;nan
28606;BME280;46498;49.968;7.754;2023-08-21T22:16:52;-18960.00;;;21.42;nan
28606;BME280;46498;49.968;7.754;2023-08-21T22:21:52;-18958.00;;;21.36;nan
28606;BME280;46498;49.968;7.754;2023-08-21T22:26:53;-18955.00;;;21.27;nan
28606;BME280;46498;49.968;7.754;2023-08-21T22:31:54;-18953.00;;;21.20;nan
28606;BME280;46498;49.968;7.754;2023-08-21T22:36:55;-18951.00;;;21.15;nan
28606;BME280;46498;49.968;7.754;2023-08-21T22:41:56;-18950.00;;;21.13;nan
28606;BME280;46498;49.968;7.754;2023-08-21T22:46:57;-18949.00;;;21.09;nan
28606;BME280;46498;49.968;7.754;2023-08-21T22:51:58;-18946.00;;;20.99;nan
28606;BME280;46498;49.968;7.754;2023-08-21T22:56:59;-18945.00;;;20.97;nan
28606;BME280;46498;49.968;7.754;2023-08-21T23:01:59;-18945.00;;;20.96;nan
28606;BME280;46498;49.968;7.754;2023-08-21T23:07:00;-18946.00;;;20.98;nan
28606;BME280;46498;49.968;7.754;2023-08-21T23:12:01;-18948.00;;;21.04;nan
28606;BME280;46498;49.968;7.754;2023-08-21T23:17:02;-18950.00;;;21.11;nan
28606;BME280;46498;49.968;7.754;2023-08-21T23:22:05;-18947.00;;;21.02;nan
28606;BME280;46498;49.968;7.754;2023-08-21T23:27:06;-18937.00;;;20.71;nan
28606;BME280;46498;49.968;7.754;2023-08-21T23:32:07;-18928.00;;;20.44;nan
28606;BME280;46498;49.968;7.754;2023-08-21T23:37:08;-18928.00;;;20.44;nan
28606;BME280;46498;49.968;7.754;2023-08-21T23:42:09;-18924.00;;;20.30;nan
28606;BME280;46498;49.968;7.754;2023-08-21T23:47:09;-18924.00;;;20.30;nan
28606;BME280;46498;49.968;7.754;2023-08-21T23:52:10;-18932.00;;;20.54;nan
28606;BME280;46498;49.968;7.754;2023-08-21T23:57:11;-18934.00;;;20.60;nan
